Time;durP1;ratioP1;P1;durP2;ratioP2;P2;SDS_P1;SDS_P2;PMS_P1;PMS_P2;Temp;Humidity;BMP_temperature;BMP_pressure;BME280_temperature;BME280_humidity;BME280_pressure;Samples;Min_cycle;Max_cycle;Signal;HPM_P1;HPM_P2
2021/08/06 00:02:14;;;;;;;1.83;1.73;;;14.70;99.90;;;;;;5048043;28;20190;-77
2021/08/06 00:04:39;;;;;;;1.80;1.70;;;14.90;99.90;;;;;;5044959;28;20182;-77
2021/08/06 00:07:05;;;;;;;1.93;1.83;;;14.80;99.90;;;;;;5040883;28;20460;-77
2021/08/06 00:09:35;;;;;;;1.77;1.50;;;14.60;99.90;;;;;;5042778;28;20182;-77
2021/08/06 00:12:01;;;;;;;1.90;1.80;;;14.70;99.90;;;;;;5044633;28;20261;-77
2021/08/06 00:14:26;;;;;;;1.80;1.70;;;14.80;99.90;;;;;;5046428;28;20520;-77
2021/08/06 00:16:52;;;;;;;1.80;1.70;;;14.60;99.90;;;;;;5046344;28;20605;-77
2021/08/06 00:19:18;;;;;;;2.60;1.73;;;14.70;99.90;;;;;;5040926;28;20185;-76
2021/08/06 00:21:44;;;;;;;1.90;1.50;;;14.80;99.90;;;;;;5044187;28;20464;-76
2021/08/06 00:24:09;;;;;;;1.87;1.77;;;14.40;99.90;;;;;;5049449;28;20243;-76
2021/08/06 00:26:35;;;;;;;1.80;1.70;;;14.70;99.90;;;;;;5052530;28;20421;-76
2021/08/06 00:29:00;;;;;;;2.10;2.00;;;14.50;99.90;;;;;;5051133;28;20213;-76
2021/08/06 00:31:26;;;;;;;2.30;2.07;;;14.50;99.90;;;;;;5049012;28;20182;-76
2021/08/06 00:33:51;;;;;;;1.70;1.60;;;14.50;99.90;;;;;;5058305;28;20197;-76
2021/08/06 00:36:17;;;;;;;1.70;1.60;;;14.20;99.90;;;;;;5070832;28;20532;-76
2021/08/06 00:38:42;;;;;;;2.23;2.03;;;14.30;99.90;;;;;;5072503;28;20234;-76
2021/08/06 00:41:08;;;;;;;2.63;2.00;;;14.40;99.90;;;;;;5069150;28;20189;-75
2021/08/06 00:43:33;;;;;;;1.77;1.67;;;14.40;99.90;;;;;;5063007;28;20257;-76
2021/08/06 00:46:01;;;;;;;1.90;1.50;;;14.30;99.90;;;;;;5047534;28;20186;-76
2021/08/06 00:48:27;;;;;;;2.23;2.03;;;14.40;99.90;;;;;;5030689;28;20449;-76
2021/08/06 00:50:53;;;;;;;2.27;2.07;;;14.40;99.90;;;;;;5058849;28;20431;-76
2021/08/06 00:53:21;;;;;;;2.00;1.90;;;14.20;99.90;;;;;;5070829;28;20533;-76
2021/08/06 00:55:47;;;;;;;3.00;2.80;;;13.80;99.90;;;;;;5068956;28;20412;-76
2021/08/06 00:58:13;;;;;;;1.90;1.80;;;13.80;99.90;;;;;;5065518;28;20436;-77
2021/08/06 01:00:39;;;;;;;3.07;2.03;;;13.70;99.90;;;;;;5052126;28;20801;-76
2021/08/06 01:03:25;;;;;;;2.73;2.03;;;13.70;99.90;;;;;;5050976;28;20181;-76
2021/08/06 01:06:11;;;;;;;3.40;2.50;;;13.70;99.90;;;;;;5049120;28;20193;-77
2021/08/06 01:08:51;;;;;;;2.20;1.90;;;13.70;99.90;;;;;;5053202;28;20463;-77
2021/08/06 01:11:21;;;;;;;1.70;1.60;;;14.00;99.90;;;;;;5067563;28;20427;-76
2021/08/06 01:13:54;;;;;;;2.30;1.80;;;13.80;99.90;;;;;;5070614;28;21001;-77
2021/08/06 01:16:25;;;;;;;2.70;2.00;;;13.60;99.90;;;;;;5063850;28;20432;-77
2021/08/06 01:19:04;;;;;;;2.50;2.30;;;14.00;99.90;;;;;;5050528;28;20805;-77
2021/08/06 01:21:38;;;;;;;1.70;1.50;;;13.70;99.90;;;;;;5048873;28;20849;-77
2021/08/06 01:24:06;;;;;;;1.70;1.60;;;13.60;99.90;;;;;;5050803;28;20417;-77
2021/08/06 01:26:32;;;;;;;4.80;2.13;;;13.60;99.90;;;;;;5061641;28;20446;-77
2021/08/06 01:28:58;;;;;;;2.20;2.00;;;13.60;99.90;;;;;;5069202;28;20459;-78
2021/08/06 01:31:29;;;;;;;2.17;2.07;;;13.60;99.90;;;;;;5069039;28;20416;-77
2021/08/06 01:33:55;;;;;;;1.87;1.77;;;13.80;99.90;;;;;;5068851;28;21020;-77
2021/08/06 01:36:21;;;;;;;2.00;1.90;;;13.50;99.90;;;;;;5061833;28;20425;-77
2021/08/06 01:38:47;;;;;;;2.53;1.80;;;13.80;99.90;;;;;;5045340;28;21130;-77
2021/08/06 01:41:25;;;;;;;2.37;2.20;;;14.00;99.90;;;;;;5043743;28;20421;-76
2021/08/06 01:43:54;;;;;;;2.40;1.90;;;13.60;99.90;;;;;;5043694;28;20519;-76
2021/08/06 01:46:35;;;;;;;2.40;2.20;;;13.80;99.90;;;;;;5048792;28;21033;-77
2021/08/06 01:49:13;;;;;;;1.90;1.80;;;13.60;99.90;;;;;;5046883;28;20522;-77
2021/08/06 01:51:43;;;;;;;1.80;1.70;;;13.60;99.90;;;;;;5043449;28;20512;-76
2021/08/06 01:54:11;;;;;;;2.20;2.03;;;13.80;99.90;;;;;;5043356;28;20421;-77
2021/08/06 01:56:39;;;;;;;2.00;1.90;;;13.90;99.90;;;;;;5045980;28;20437;-77
2021/08/06 01:59:06;;;;;;;2.73;2.27;;;13.90;99.90;;;;;;5064765;28;20446;-76
2021/08/06 02:01:32;;;;;;;3.37;2.20;;;14.10;99.90;;;;;;5068280;28;20576;-76
2021/08/06 02:03:58;;;;;;;1.83;1.73;;;14.00;99.90;;;;;;5065185;28;20519;-77
2021/08/06 02:06:23;;;;;;;2.20;2.00;;;13.90;99.90;;;;;;5063330;28;20216;-77
2021/08/06 02:08:50;;;;;;;2.67;2.30;;;14.10;99.90;;;;;;5046383;28;20218;-76
2021/08/06 02:11:19;;;;;;;2.30;2.10;;;14.50;99.90;;;;;;5043285;28;20213;-77
2021/08/06 02:13:46;;;;;;;2.50;2.30;;;14.30;99.90;;;;;;5043032;28;20498;-77
2021/08/06 02:16:13;;;;;;;2.20;2.00;;;14.40;99.90;;;;;;5046480;28;20465;-76
2021/08/06 02:18:38;;;;;;;1.80;1.70;;;14.60;99.90;;;;;;5055124;28;20444;-76
2021/08/06 02:21:09;;;;;;;1.90;1.80;;;14.50;99.90;;;;;;5046379;28;20429;-76
2021/08/06 02:23:37;;;;;;;2.10;1.90;;;14.70;99.90;;;;;;5042771;28;20924;-76
2021/08/06 02:26:04;;;;;;;2.13;1.77;;;14.50;99.90;;;;;;5043124;28;20436;-76
2021/08/06 02:28:31;;;;;;;1.80;1.70;;;14.60;99.90;;;;;;5051609;28;20479;-76
2021/08/06 02:30:57;;;;;;;2.00;1.60;;;14.80;99.90;;;;;;5064548;28;20415;-76
2021/08/06 02:33:23;;;;;;;2.00;1.90;;;14.90;99.90;;;;;;5062261;28;20515;-78
2021/08/06 02:35:49;;;;;;;2.17;1.90;;;14.80;99.90;;;;;;5062168;28;20589;-75
2021/08/06 02:38:21;;;;;;;3.13;1.73;;;14.90;99.90;;;;;;5047977;28;20487;-77
2021/08/06 02:40:47;;;;;;;1.70;1.60;;;14.90;99.90;;;;;;5037670;28;20576;-78
2021/08/06 02:43:13;;;;;;;1.80;1.70;;;14.90;99.90;;;;;;5040671;28;20426;-75
2021/08/06 02:45:39;;;;;;;2.20;2.00;;;14.90;99.90;;;;;;5056604;28;20843;-75
2021/08/06 02:48:05;;;;;;;1.53;1.37;;;15.00;99.90;;;;;;5067545;28;20213;-78
2021/08/06 02:50:31;;;;;;;2.17;1.97;;;14.80;99.90;;;;;;5068795;28;20523;-75
2021/08/06 02:52:56;;;;;;;2.13;1.70;;;14.80;99.90;;;;;;5066362;28;20524;-78
2021/08/06 02:55:22;;;;;;;2.03;1.93;;;14.90;99.90;;;;;;5054041;28;20183;-78
2021/08/06 02:57:47;;;;;;;1.67;1.57;;;15.00;99.90;;;;;;5044101;28;20186;-77
2021/08/06 03:00:13;;;;;;;2.70;1.80;;;15.10;99.90;;;;;;5043860;28;20184;-77
2021/08/06 03:02:39;;;;;;;1.80;1.70;;;14.90;99.90;;;;;;5047540;28;20289;-78
2021/08/06 03:05:05;;;;;;;1.73;1.63;;;15.10;99.90;;;;;;5048003;28;20465;-78
2021/08/06 03:07:31;;;;;;;2.27;1.87;;;14.90;99.90;;;;;;5063591;28;20250;-77
2021/08/06 03:09:56;;;;;;;2.00;1.90;;;14.80;99.90;;;;;;5063871;28;20776;-77
2021/08/06 03:12:22;;;;;;;1.87;1.77;;;15.10;99.90;;;;;;5063551;28;20178;-78
2021/08/06 03:14:48;;;;;;;2.00;1.90;;;15.00;99.90;;;;;;5066840;28;20184;-77
2021/08/06 03:17:13;;;;;;;2.77;1.60;;;15.00;99.90;;;;;;5063687;28;20440;-77
2021/08/06 03:19:39;;;;;;;2.67;1.50;;;14.90;99.90;;;;;;5061843;28;20659;-76
2021/08/06 03:22:04;;;;;;;2.90;1.57;;;15.00;99.90;;;;;;5061830;28;20218;-76
2021/08/06 03:24:30;;;;;;;1.97;1.87;;;14.90;99.90;;;;;;5061532;28;20182;-76
2021/08/06 03:26:55;;;;;;;1.90;1.80;;;14.90;99.90;;;;;;5049920;28;20274;-75
2021/08/06 03:29:21;;;;;;;1.73;1.63;;;14.70;99.90;;;;;;5041566;28;20649;-76
2021/08/06 03:31:46;;;;;;;1.97;1.80;;;14.70;99.90;;;;;;5043216;28;20679;-76
2021/08/06 03:34:12;;;;;;;2.13;2.03;;;14.80;99.90;;;;;;5051866;28;20575;-76
2021/08/06 03:36:37;;;;;;;2.03;1.93;;;14.70;99.90;;;;;;5044717;28;20803;-75
2021/08/06 03:39:04;;;;;;;2.30;2.10;;;14.70;99.90;;;;;;5040825;28;20577;-75
2021/08/06 03:41:31;;;;;;;2.13;1.90;;;14.70;99.90;;;;;;5040546;28;20209;-76
2021/08/06 03:43:56;;;;;;;2.47;2.30;;;14.60;99.90;;;;;;5043152;28;20915;-76
2021/08/06 03:46:22;;;;;;;2.50;2.30;;;14.30;99.90;;;;;;5049968;28;20673;-76
2021/08/06 03:48:47;;;;;;;3.87;3.33;;;14.60;99.90;;;;;;5045547;28;20251;-76
2021/08/06 03:51:13;;;;;;;3.10;2.90;;;14.20;99.90;;;;;;5042409;28;20193;-77
2021/08/06 03:53:39;;;;;;;2.60;2.40;;;14.60;99.90;;;;;;5040581;28;20573;-76
2021/08/06 03:56:05;;;;;;;2.57;2.37;;;14.70;99.90;;;;;;5043245;28;20641;-77
2021/08/06 03:58:30;;;;;;;2.57;2.37;;;14.80;99.90;;;;;;5045394;28;20459;-77
2021/08/06 04:00:56;;;;;;;2.60;2.40;;;14.60;99.90;;;;;;5045611;28;20269;-76
2021/08/06 04:03:22;;;;;;;2.93;2.73;;;14.60;99.90;;;;;;5042432;28;20236;-76
2021/08/06 04:05:47;;;;;;;3.33;3.03;;;14.40;99.90;;;;;;5042580;28;20183;-76
2021/08/06 04:08:13;;;;;;;3.40;3.10;;;14.50;99.90;;;;;;5043193;28;20229;-77
2021/08/06 04:10:38;;;;;;;3.07;2.73;;;14.80;99.90;;;;;;5045642;28;20179;-77
2021/08/06 04:13:04;;;;;;;3.20;2.90;;;14.60;99.90;;;;;;5044034;28;20193;-77
2021/08/06 04:15:30;;;;;;;4.20;3.20;;;14.60;99.90;;;;;;5040538;28;20624;-77
2021/08/06 04:17:56;;;;;;;3.17;2.90;;;14.80;99.90;;;;;;5042337;28;20343;-77
2021/08/06 04:20:22;;;;;;;3.23;2.90;;;14.40;99.90;;;;;;5044801;28;20202;-77
2021/08/06 04:22:48;;;;;;;3.20;3.00;;;14.70;99.90;;;;;;5045904;28;20441;-77
2021/08/06 04:25:13;;;;;;;3.90;3.60;;;14.70;99.90;;;;;;5041836;28;20548;-78
2021/08/06 04:27:39;;;;;;;3.30;3.00;;;14.60;99.90;;;;;;5040311;28;21137;-77
2021/08/06 04:30:07;;;;;;;5.47;3.70;;;14.70;99.90;;;;;;5040388;28;20186;-76
2021/08/06 04:32:32;;;;;;;3.40;3.10;;;14.80;99.90;;;;;;5039212;28;20509;-77
2021/08/06 04:34:58;;;;;;;4.00;3.70;;;14.50;99.90;;;;;;5040944;28;20444;-77
2021/08/06 04:37:24;;;;;;;3.50;3.20;;;14.70;99.90;;;;;;5045931;28;20592;-77
2021/08/06 04:39:49;;;;;;;3.10;2.90;;;14.80;99.90;;;;;;5051592;28;20440;-77
2021/08/06 04:42:15;;;;;;;4.13;3.73;;;14.80;99.90;;;;;;5048348;28;20193;-77
2021/08/06 04:44:40;;;;;;;3.80;3.47;;;14.80;99.90;;;;;;5039972;28;20210;-77
2021/08/06 04:47:06;;;;;;;3.83;3.50;;;14.90;99.90;;;;;;5047391;28;20210;-77
2021/08/06 04:49:33;;;;;;;3.40;3.10;;;15.00;99.90;;;;;;5045565;28;20707;-78
2021/08/06 04:51:58;;;;;;;3.23;2.97;;;14.80;99.90;;;;;;5043660;28;20857;-77
2021/08/06 04:54:24;;;;;;;3.20;2.90;;;14.90;99.90;;;;;;5040109;28;20428;-77
2021/08/06 04:56:49;;;;;;;4.00;3.70;;;15.20;99.90;;;;;;5041972;28;20436;-77
2021/08/06 04:59:15;;;;;;;3.03;2.77;;;14.80;99.90;;;;;;5040079;28;20233;-77
2021/08/06 05:01:40;;;;;;;3.30;3.07;;;15.00;99.90;;;;;;5039465;28;20178;-79
2021/08/06 05:04:06;;;;;;;3.47;3.17;;;14.80;99.90;;;;;;5041612;28;20186;-84
2021/08/06 05:06:32;;;;;;;3.77;3.47;;;14.90;99.90;;;;;;5046182;28;20183;-78
2021/08/06 05:08:57;;;;;;;4.97;3.90;;;15.20;99.90;;;;;;5048208;28;20648;-78
2021/08/06 05:11:23;;;;;;;3.67;3.37;;;14.80;99.90;;;;;;5043051;28;20233;-78
2021/08/06 05:13:48;;;;;;;3.80;3.50;;;15.00;99.90;;;;;;5045305;28;20456;-78
2021/08/06 05:16:14;;;;;;;4.37;3.53;;;14.70;99.90;;;;;;5043299;28;20607;-78
2021/08/06 05:18:40;;;;;;;3.67;3.30;;;15.10;99.90;;;;;;5050780;28;20186;-81
2021/08/06 05:21:05;;;;;;;3.23;3.03;;;14.70;99.90;;;;;;5045042;28;20244;-79
2021/08/06 05:23:31;;;;;;;3.63;3.33;;;15.10;99.90;;;;;;5048579;28;20290;-77
2021/08/06 05:25:57;;;;;;;5.07;3.50;;;14.60;99.90;;;;;;5048737;28;20218;-76
2021/08/06 05:28:22;;;;;;;3.20;3.00;;;14.80;99.90;;;;;;5047314;28;20209;-76
2021/08/06 05:30:48;;;;;;;4.00;3.70;;;14.90;99.90;;;;;;5049974;28;20178;-77
2021/08/06 05:33:13;;;;;;;4.70;3.50;;;14.90;99.90;;;;;;5044908;28;20202;-76
2021/08/06 05:35:40;;;;;;;3.97;3.67;;;15.20;99.90;;;;;;5048129;28;20273;-76
2021/08/06 05:38:06;;;;;;;3.53;3.20;;;15.10;99.90;;;;;;5048268;28;20250;-76
2021/08/06 05:40:32;;;;;;;4.00;3.60;;;15.20;99.90;;;;;;5045238;28;20436;-77
2021/08/06 05:42:57;;;;;;;3.80;3.50;;;14.70;99.90;;;;;;5040102;28;20433;-77
2021/08/06 05:45:24;;;;;;;5.40;3.20;;;15.10;99.90;;;;;;5044294;28;20191;-77
2021/08/06 05:47:52;;;;;;;3.63;3.43;;;15.30;99.90;;;;;;5048502;28;20206;-77
2021/08/06 05:50:20;;;;;;;3.70;3.40;;;15.40;99.90;;;;;;5046987;28;21060;-78
2021/08/06 05:52:46;;;;;;;3.37;3.17;;;15.40;99.90;;;;;;5052818;28;20810;-77
2021/08/06 05:55:12;;;;;;;4.30;3.90;;;15.50;99.90;;;;;;5043204;28;20433;-76
2021/08/06 05:57:38;;;;;;;3.43;3.20;;;15.40;99.90;;;;;;5048008;28;20826;-77
2021/08/06 06:00:05;;;;;;;3.87;3.57;;;15.50;99.90;;;;;;5045797;28;20425;-75
2021/08/06 06:02:31;;;;;;;3.37;3.07;;;15.60;99.90;;;;;;5050056;28;20191;-74
2021/08/06 06:04:57;;;;;;;3.83;3.53;;;15.60;99.90;;;;;;5043843;28;20775;-73
2021/08/06 06:07:22;;;;;;;3.90;3.60;;;15.70;99.90;;;;;;5047575;28;20226;-74
2021/08/06 06:09:48;;;;;;;5.43;3.77;;;15.60;99.90;;;;;;5047817;28;20186;-73
2021/08/06 06:12:13;;;;;;;4.40;3.50;;;16.20;99.90;;;;;;5044379;28;20182;-73
2021/08/06 06:14:39;;;;;;;4.03;3.63;;;16.00;99.90;;;;;;5042773;28;20731;-75
2021/08/06 06:17:05;;;;;;;4.37;3.97;;;16.00;99.90;;;;;;5045520;28;20179;-73
2021/08/06 06:19:30;;;;;;;3.90;3.60;;;16.20;99.90;;;;;;5047268;28;20182;-73
2021/08/06 06:21:56;;;;;;;4.30;3.60;;;16.20;99.90;;;;;;5047857;28;20182;-73
2021/08/06 06:24:21;;;;;;;4.50;4.10;;;16.20;99.90;;;;;;5040452;28;20261;-73
2021/08/06 06:26:47;;;;;;;3.47;3.20;;;16.30;99.90;;;;;;5044124;28;20555;-74
2021/08/06 06:29:12;;;;;;;3.87;3.53;;;16.00;99.90;;;;;;5042267;28;20222;-73
2021/08/06 06:31:38;;;;;;;3.60;3.30;;;16.20;99.90;;;;;;5043521;28;20186;-73
2021/08/06 06:34:03;;;;;;;3.97;3.67;;;16.20;99.90;;;;;;5045472;28;20194;-73
2021/08/06 06:36:29;;;;;;;4.80;3.50;;;16.10;99.90;;;;;;5047578;28;20272;-73
2021/08/06 06:38:54;;;;;;;4.03;3.73;;;16.10;99.90;;;;;;5047118;28;20304;-74
2021/08/06 06:41:20;;;;;;;4.23;3.53;;;15.90;99.90;;;;;;5042912;28;20357;-73
2021/08/06 06:43:45;;;;;;;3.87;3.37;;;16.10;99.90;;;;;;5041821;28;20191;-72
2021/08/06 06:46:11;;;;;;;3.90;3.60;;;15.90;99.90;;;;;;5047236;28;20187;-72
2021/08/06 06:48:37;;;;;;;3.83;3.53;;;15.90;99.90;;;;;;5048691;28;20218;-72
2021/08/06 06:51:02;;;;;;;3.90;3.60;;;15.90;99.90;;;;;;5043147;28;20692;-72
2021/08/06 06:53:28;;;;;;;3.60;3.30;;;16.20;99.90;;;;;;5044241;28;20262;-72
2021/08/06 06:55:53;;;;;;;3.00;2.80;;;16.50;99.90;;;;;;5043003;28;20175;-72
2021/08/06 06:58:19;;;;;;;4.97;3.63;;;16.50;99.90;;;;;;5046984;28;20194;-72
2021/08/06 07:00:45;;;;;;;3.97;3.67;;;16.80;99.90;;;;;;5046337;28;20563;-72
2021/08/06 07:03:10;;;;;;;3.27;3.07;;;17.40;99.90;;;;;;5043718;28;20186;-74
2021/08/06 07:05:36;;;;;;;3.60;3.07;;;17.80;99.90;;;;;;5043559;28;20194;-74
2021/08/06 07:08:02;;;;;;;2.77;2.60;;;18.00;99.90;;;;;;5044864;28;20199;-74
2021/08/06 07:10:28;;;;;;;2.83;2.63;;;18.50;99.90;;;;;;5045958;28;20193;-75
2021/08/06 07:12:55;;;;;;;2.80;2.60;;;18.70;99.90;;;;;;5044299;28;20802;-75
2021/08/06 07:15:21;;;;;;;2.80;2.60;;;18.80;99.90;;;;;;5040724;28;20427;-75
2021/08/06 07:17:47;;;;;;;3.30;2.20;;;19.20;99.90;;;;;;5052872;28;20446;-74
2021/08/06 07:20:14;;;;;;;2.50;2.20;;;19.30;99.90;;;;;;5056354;28;20443;-74
2021/08/06 07:22:40;;;;;;;2.30;2.10;;;19.40;99.90;;;;;;5054751;28;20456;-75
2021/08/06 07:25:09;;;;;;;4.90;2.40;;;19.40;99.90;;;;;;5044470;28;20454;-75
2021/08/06 07:27:35;;;;;;;2.73;2.60;;;19.50;99.90;;;;;;5050252;28;20587;-75
2021/08/06 07:30:01;;;;;;;2.27;2.07;;;19.30;99.90;;;;;;5047338;28;20438;-75
2021/08/06 07:32:26;;;;;;;2.60;2.40;;;19.40;99.90;;;;;;5053623;28;20450;-74
2021/08/06 07:34:52;;;;;;;2.43;2.23;;;19.50;99.90;;;;;;5053335;28;20187;-72
2021/08/06 07:37:17;;;;;;;2.37;2.20;;;19.50;99.90;;;;;;5046804;28;20228;-74
2021/08/06 07:39:43;;;;;;;2.70;2.50;;;19.30;99.90;;;;;;5056681;28;20191;-75
2021/08/06 07:42:08;;;;;;;1.87;1.77;;;19.70;99.90;;;;;;5040872;28;20194;-74
2021/08/06 07:44:34;;;;;;;2.40;2.20;;;19.70;99.90;;;;;;5041521;28;20177;-74
2021/08/06 07:47:00;;;;;;;2.00;1.90;;;19.90;99.90;;;;;;5046597;28;20196;-74
2021/08/06 07:49:25;;;;;;;2.30;2.17;;;19.90;99.90;;;;;;5053478;28;20206;-74
2021/08/06 07:51:51;;;;;;;2.83;2.63;;;20.10;99.90;;;;;;5050298;28;20558;-75
2021/08/06 07:54:16;;;;;;;2.30;2.10;;;20.10;99.90;;;;;;5047788;28;21148;-75
2021/08/06 07:56:42;;;;;;;2.00;1.90;;;20.50;99.90;;;;;;5048710;28;20189;-75
2021/08/06 07:59:08;;;;;;;2.70;2.20;;;21.10;99.90;;;;;;5048853;28;20284;-86
2021/08/06 08:01:33;;;;;;;2.53;1.80;;;21.20;99.90;;;;;;5055842;28;20424;-74
2021/08/06 08:03:59;;;;;;;2.17;2.07;;;21.30;99.90;;;;;;5048597;28;20179;-74
2021/08/06 08:06:24;;;;;;;1.70;1.40;;;21.50;99.90;;;;;;5052875;28;20262;-73
2021/08/06 08:08:50;;;;;;;1.67;1.57;;;21.20;99.90;;;;;;5049057;28;20555;-75
2021/08/06 08:11:15;;;;;;;1.70;1.60;;;21.30;99.80;;;;;;5051082;28;20182;-75
2021/08/06 08:13:41;;;;;;;1.63;1.53;;;21.30;99.60;;;;;;5046332;28;20189;-78
2021/08/06 08:16:06;;;;;;;1.93;1.83;;;21.10;99.90;;;;;;5049015;28;20186;-77
2021/08/06 08:18:32;;;;;;;1.33;1.23;;;21.40;99.90;;;;;;5042559;28;20245;-76
2021/08/06 08:20:58;;;;;;;1.00;1.00;;;21.50;99.90;;;;;;5049325;28;20192;-74
2021/08/06 08:23:24;;;;;;;1.10;1.10;;;21.40;99.70;;;;;;5043998;28;20185;-74
2021/08/06 08:25:53;;;;;;;1.93;0.90;;;21.60;97.70;;;;;;5054559;28;20222;-73
2021/08/06 08:28:19;;;;;;;2.50;1.17;;;21.70;98.90;;;;;;5051024;28;20467;-75
2021/08/06 08:30:45;;;;;;;1.17;1.17;;;21.90;99.90;;;;;;5042081;28;20524;-73
2021/08/06 08:33:14;;;;;;;1.37;1.20;;;22.50;99.90;;;;;;5055304;28;21099;-73
2021/08/06 08:35:40;;;;;;;1.17;1.17;;;22.70;98.80;;;;;;5049245;28;20438;-72
2021/08/06 08:38:05;;;;;;;1.33;0.90;;;23.20;97.90;;;;;;5048135;28;20473;-74
2021/08/06 08:40:31;;;;;;;1.63;1.20;;;23.70;99.40;;;;;;5044014;28;20214;-74
2021/08/06 08:42:57;;;;;;;1.07;0.97;;;24.50;99.90;;;;;;5051678;28;20679;-75
2021/08/06 08:45:23;;;;;;;0.70;0.70;;;25.00;93.70;;;;;;5057037;28;20195;-74
2021/08/06 08:47:49;;;;;;;0.70;0.70;;;25.60;90.00;;;;;;5056341;28;20465;-75
2021/08/06 08:50:15;;;;;;;0.90;0.90;;;25.90;91.40;;;;;;5054808;28;20237;-72
2021/08/06 08:52:41;;;;;;;1.40;1.00;;;26.60;83.00;;;;;;5059449;28;20183;-72
2021/08/06 08:55:08;;;;;;;1.73;0.70;;;26.80;76.50;;;;;;5054325;28;20444;-74
2021/08/06 08:57:33;;;;;;;0.80;0.70;;;26.90;66.70;;;;;;5051783;28;20444;-79
2021/08/06 08:59:59;;;;;;;1.53;1.00;;;26.90;65.70;;;;;;5055682;28;20523;-75
2021/08/06 09:02:24;;;;;;;1.27;0.80;;;26.50;60.00;;;;;;5056065;28;20195;-74
2021/08/06 09:05:17;;;;;;;0.90;0.90;;;26.50;62.40;;;;;;5056364;28;20193;-74
2021/08/06 09:07:43;;;;;;;1.00;0.90;;;26.20;68.30;;;;;;5060023;28;20212;-74
2021/08/06 09:10:16;;;;;;;0.80;0.80;;;26.50;60.00;;;;;;5063940;28;20788;-74
2021/08/06 09:13:00;;;;;;;1.10;1.00;;;26.60;62.00;;;;;;5046398;28;21758;-74
2021/08/06 09:15:50;;;;;;;1.13;1.10;;;26.30;59.40;;;;;;5055365;28;20440;-74
2021/08/06 09:18:24;;;;;;;1.30;1.20;;;26.60;64.70;;;;;;5057478;28;20433;-75
2021/08/06 09:20:55;;;;;;;1.10;1.00;;;27.90;59.80;;;;;;5051113;28;20796;-78
2021/08/06 09:23:50;;;;;;;1.73;1.00;;;28.90;53.20;;;;;;5045936;28;20476;-75
2021/08/06 09:26:43;;;;;;;1.90;0.90;;;29.40;52.20;;;;;;5058104;28;20452;-75
2021/08/06 09:29:21;;;;;;;1.20;1.10;;;28.70;52.40;;;;;;5052613;28;20592;-77
2021/08/06 09:31:59;;;;;;;2.00;1.13;;;27.70;50.80;;;;;;5052949;28;20517;-76
2021/08/06 09:34:35;;;;;;;1.30;1.20;;;26.60;53.80;;;;;;5049124;28;20424;-74
2021/08/06 09:37:09;;;;;;;1.40;1.20;;;25.40;55.10;;;;;;5048907;28;20484;-76
2021/08/06 09:39:47;;;;;;;1.10;1.00;;;24.70;55.90;;;;;;5057411;28;20813;-76
2021/08/06 09:42:21;;;;;;;1.57;1.47;;;24.50;58.80;;;;;;5050651;28;20448;-75
2021/08/06 09:45:01;;;;;;;1.57;1.10;;;24.00;59.30;;;;;;5046154;28;20443;-81
2021/08/06 09:47:28;;;;;;;1.90;1.53;;;23.40;58.90;;;;;;5057248;28;20862;-75
2021/08/06 09:49:56;;;;;;;1.63;1.33;;;23.70;62.60;;;;;;5045366;28;20441;-75
2021/08/06 09:52:34;;;;;;;1.33;1.23;;;24.50;69.40;;;;;;5050482;28;20526;-78
2021/08/06 09:55:01;;;;;;;1.60;1.20;;;26.70;64.40;;;;;;5039937;28;20947;-74
2021/08/06 09:57:26;;;;;;;1.00;1.00;;;29.20;54.30;;;;;;5048126;28;20444;-74
2021/08/06 09:59:56;;;;;;;0.90;0.80;;;31.00;53.80;;;;;;5053455;28;20818;-76
2021/08/06 10:02:27;;;;;;;1.10;1.00;;;31.70;45.70;;;;;;5049801;28;20197;-76
2021/08/06 10:05:10;;;;;;;1.03;1.03;;;31.90;47.20;;;;;;5050361;28;20967;-75
2021/08/06 10:07:41;;;;;;;1.00;0.97;;;31.50;42.40;;;;;;5051191;28;20482;-75
2021/08/06 10:10:10;;;;;;;1.20;1.10;;;30.70;47.50;;;;;;5051220;28;20498;-75
2021/08/06 10:12:35;;;;;;;1.50;1.40;;;29.90;46.80;;;;;;5049684;28;20425;-76
2021/08/06 10:15:02;;;;;;;1.50;1.40;;;29.00;47.10;;;;;;5055066;28;20436;-75
2021/08/06 10:17:29;;;;;;;3.03;1.43;;;28.20;48.80;;;;;;5053463;28;20189;-76
2021/08/06 10:19:55;;;;;;;1.23;1.13;;;27.50;51.30;;;;;;5054890;28;20435;-77
2021/08/06 10:22:21;;;;;;;1.20;1.10;;;26.40;54.30;;;;;;5052027;28;20436;-76
2021/08/06 10:24:49;;;;;;;1.37;1.27;;;26.30;54.10;;;;;;5053507;28;20225;-77
2021/08/06 10:27:20;;;;;;;3.23;1.33;;;25.70;53.10;;;;;;5047791;28;20440;-75
2021/08/06 10:30:08;;;;;;;1.30;1.20;;;25.20;54.80;;;;;;5061350;28;20429;-74
2021/08/06 10:32:35;;;;;;;1.30;1.20;;;25.40;55.30;;;;;;5051523;28;20449;-75
2021/08/06 10:35:16;;;;;;;1.30;1.20;;;25.20;56.50;;;;;;5055688;28;20761;-76
2021/08/06 10:38:02;;;;;;;1.90;1.37;;;24.70;55.50;;;;;;5045489;28;20467;-76
2021/08/06 10:40:35;;;;;;;1.50;1.40;;;24.40;56.20;;;;;;5046294;28;20445;-77
2021/08/06 10:43:33;;;;;;;1.97;1.83;;;24.00;57.10;;;;;;5055104;28;21015;-76
2021/08/06 10:45:58;;;;;;;1.33;1.23;;;23.40;58.10;;;;;;5053988;28;20801;-76
2021/08/06 10:48:38;;;;;;;1.20;1.20;;;23.60;62.10;;;;;;5049569;28;20453;-76
2021/08/06 10:51:15;;;;;;;1.60;1.50;;;23.50;60.80;;;;;;5050787;28;20180;-77
2021/08/06 10:53:46;;;;;;;1.47;1.40;;;23.70;64.60;;;;;;5057234;28;20424;-77
2021/08/06 10:56:28;;;;;;;1.30;1.30;;;23.60;62.60;;;;;;5047027;28;20818;-77
2021/08/06 10:58:55;;;;;;;1.37;1.27;;;23.60;59.40;;;;;;5054199;28;20434;-78
2021/08/06 11:01:31;;;;;;;1.93;1.17;;;23.60;60.10;;;;;;5048680;28;20498;-77
2021/08/06 11:04:05;;;;;;;1.60;1.10;;;23.60;60.10;;;;;;5047705;28;20439;-78
2021/08/06 11:06:48;;;;;;;2.40;1.10;;;23.40;59.00;;;;;;5045416;28;20490;-75
2021/08/06 11:09:23;;;;;;;2.20;1.30;;;23.50;59.00;;;;;;5042968;28;20555;-76
2021/08/06 11:11:56;;;;;;;1.47;1.37;;;24.00;60.60;;;;;;5039577;28;20442;-77
2021/08/06 11:14:39;;;;;;;1.70;1.10;;;25.00;61.60;;;;;;5044255;28;20433;-75
2021/08/06 11:17:21;;;;;;;1.03;1.03;;;27.00;57.40;;;;;;5041977;28;20972;-78
2021/08/06 11:20:09;;;;;;;1.20;1.10;;;29.20;51.50;;;;;;5039483;28;20439;-77
2021/08/06 11:22:44;;;;;;;1.03;0.97;;;30.60;48.50;;;;;;5046329;28;20483;-77
2021/08/06 11:25:23;;;;;;;1.17;1.10;;;30.70;44.60;;;;;;5046005;28;20445;-77
2021/08/06 11:27:50;;;;;;;2.13;1.00;;;30.60;46.80;;;;;;5043717;28;20823;-76
2021/08/06 11:30:20;;;;;;;1.90;1.00;;;31.20;45.10;;;;;;5043388;28;20430;-77
2021/08/06 11:32:58;;;;;;;1.30;1.20;;;32.80;49.20;;;;;;5044975;28;20448;-77
2021/08/06 11:35:32;;;;;;;1.10;1.00;;;33.80;43.20;;;;;;5043013;28;20425;-76
2021/08/06 11:38:00;;;;;;;1.43;1.00;;;34.50;40.30;;;;;;5041853;28;20500;-75
2021/08/06 11:40:33;;;;;;;0.93;0.90;;;35.30;37.50;;;;;;5039973;28;20436;-76
2021/08/06 11:43:12;;;;;;;1.00;1.00;;;36.40;39.20;;;;;;5035199;28;20442;-76
2021/08/06 11:45:40;;;;;;;2.60;0.90;;;37.20;36.30;;;;;;5033346;28;20895;-76
2021/08/06 11:48:05;;;;;;;0.97;0.80;;;37.90;32.60;;;;;;5039658;28;20472;-79
2021/08/06 11:50:40;;;;;;;0.80;0.80;;;38.60;33.70;;;;;;5040513;28;20433;-76
2021/08/06 11:53:17;;;;;;;1.43;1.00;;;39.50;29.10;;;;;;5039857;28;20672;-74
2021/08/06 11:55:45;;;;;;;0.80;0.80;;;39.90;29.80;;;;;;5028832;28;20858;-75
2021/08/06 11:58:11;;;;;;;0.83;0.83;;;39.00;28.10;;;;;;5039906;28;20437;-75
2021/08/06 12:00:38;;;;;;;1.63;1.00;;;37.50;29.30;;;;;;5038965;28;20436;-74
2021/08/06 12:03:15;;;;;;;0.90;0.90;;;35.90;33.00;;;;;;5040321;28;20210;-75
2021/08/06 12:05:46;;;;;;;1.93;1.20;;;34.30;31.70;;;;;;5039444;28;20801;-74
2021/08/06 12:08:23;;;;;;;1.60;0.93;;;32.90;34.10;;;;;;5039144;28;20476;-74
2021/08/06 12:10:55;;;;;;;1.60;1.10;;;31.50;36.00;;;;;;5045641;28;20424;-75
2021/08/06 12:13:23;;;;;;;2.27;2.07;;;30.50;39.20;;;;;;5039679;28;20457;-76
2021/08/06 12:16:04;;;;;;;1.00;0.90;;;29.80;40.80;;;;;;5041329;28;20437;-75
2021/08/06 12:18:30;;;;;;;1.93;1.20;;;29.90;42.10;;;;;;5044208;28;20436;-75
2021/08/06 12:20:59;;;;;;;1.40;1.13;;;30.60;40.20;;;;;;5042961;28;20426;-76
2021/08/06 12:23:25;;;;;;;2.07;1.30;;;30.70;39.70;;;;;;5039733;28;20499;-73
2021/08/06 12:26:18;;;;;;;1.07;1.00;;;31.00;39.40;;;;;;5041928;28;20514;-73
2021/08/06 12:28:49;;;;;;;1.40;1.03;;;31.10;40.40;;;;;;5040850;28;20500;-78
2021/08/06 12:31:24;;;;;;;1.37;0.90;;;32.60;38.50;;;;;;5045210;28;20807;-76
2021/08/06 12:34:08;;;;;;;1.53;1.00;;;34.10;35.70;;;;;;5044465;28;20533;-75
2021/08/06 12:36:37;;;;;;;1.70;1.60;;;35.20;32.30;;;;;;5039648;28;20437;-75
2021/08/06 12:39:11;;;;;;;1.43;0.87;;;36.00;31.90;;;;;;5044318;28;20481;-76
2021/08/06 12:41:38;;;;;;;1.33;0.90;;;36.80;30.40;;;;;;5041637;28;20442;-76
2021/08/06 12:44:24;;;;;;;1.10;1.00;;;37.50;29.30;;;;;;5042269;28;20515;-76
2021/08/06 12:47:00;;;;;;;1.33;0.90;;;38.50;29.70;;;;;;5038635;28;20521;-77
2021/08/06 12:49:33;;;;;;;4.77;1.30;;;39.60;29.00;;;;;;5038280;28;20476;-76
2021/08/06 12:52:08;;;;;;;1.10;1.00;;;39.80;25.70;;;;;;5046580;28;20443;-76
2021/08/06 12:54:37;;;;;;;0.87;0.87;;;39.90;26.30;;;;;;5046021;28;20433;-76
2021/08/06 12:57:08;;;;;;;0.80;0.80;;;40.30;27.10;;;;;;5041154;28;20457;-79